O'Leary, Canada
Current Conditions -  °F | °C
As of 10:00 PM on Friday 28 Nov 2014 (Local Time) from CYQM Reporting Station
Broken Clouds Broken Clouds  
Wind Chill: 10°   Ceiling: 3200
Heat Index: 19°   Visibility: 15mi
Dew Point: 16°   Wind: 7mph
Humidity: 86%   Direction: 270°W
Pressure: 29.99"   Gusts: NA
Location:  46.7°N, 64.22°W
Report Text: CYQM 290200Z 27006KT 15SM BKN032 BKN120 BKN240 M07/M09 A2999 RMK SC5AC1CI1 SLP159
Loading
Personal Weather Stations






























Interactive Weather Map New forecast layout! Learn more

10-Day Weather Forecast

Advertisements
Track Severe Weather on mobile